CST,Max TemperatureF,Mean TemperatureF,Min TemperatureF,Max Dew PointF,MeanDew PointF,Min DewpointF,Max Humidity, Mean Humidity, Min Humidity, Max Sea Level PressureIn, Mean Sea Level PressureIn, Min Sea Level PressureIn, Max VisibilityMiles, Mean VisibilityMiles, Min VisibilityMiles, Max Wind SpeedMPH, Mean Wind SpeedMPH, Max Gust SpeedMPH,PrecipitationIn, CloudCover, Events, WindDirDegrees
2013-2-1,0,-10,-20,-13,-24,-31,58,47,30,30.21,30.12,30.04,10,10,7,9,2,,0.00,4,,228
2013-2-2,10,-2,-13,-4,-13,-24,70,51,34,30.11,30.03,29.91,10,9,4,0,0,,0.00,5,Snow,-1
2013-2-3,12,8,3,-4,-9,-15,61,47,32,29.99,29.95,29.90,10,10,7,12,3,20,0.00,5,Snow,313
2013-2-4,12,-2,-16,1,-14,-26,70,47,31,30.01,29.90,29.65,10,10,1,9,0,,0.02,4,Snow,188
2013-2-5,23,10,-2,12,1,-9,79,61,30,30.01,29.80,29.57,10,7,1,13,2,18,0.01,5,Snow,334
2013-2-6,21,8,-4,14,6,-11,80,69,53,30.04,30.01,29.95,10,7,0,4,0,,0.02,8,Snow,95
2013-2-7,28,22,14,18,16,7,86,74,59,30.26,30.14,30.04,10,9,4,14,2,21,0.00,8,Snow,39
2013-2-8,28,13,-2,14,4,-9,86,62,37,30.34,30.27,30.19,10,9,0,0,0,,0.00,2,,-1
2013-2-9,30,20,10,23,18,3,80,74,64,30.18,30.01,29.92,10,7,3,12,1,16,0.00,8,,200
2013-2-10,32,28,24,27,22,19,93,78,74,29.92,29.58,29.31,5,2,0,13,4,24,0.12,8,Snow,54
2013-2-11,30,24,17,27,14,9,93,64,51,29.93,29.66,29.33,10,9,2,17,11,24,0.00,8,Snow,321
2013-2-12,32,20,8,14,10,1,93,63,44,29.93,29.81,29.70,10,10,5,14,3,18,0.00,5,Snow,216
2013-2-13,37,28,19,23,17,14,80,64,45,29.70,29.62,29.56,10,9,4,0,0,,0.00,6,Snow,-1
2013-2-14,30,21,12,19,5,-8,74,50,24,30.10,29.86,29.62,10,10,10,16,3,23,0.00,4,Snow,348
2013-2-15,17,9,1,-2,-6,-9,72,50,32,30.23,30.18,30.10,10,10,10,15,1,23,0.00,4,,328
2013-2-16,19,6,-7,-2,-7,-17,72,54,28,30.16,30.11,30.06,10,10,7,0,0,,0.00,4,,-1
2013-2-17,30,8,-13,10,-3,-24,66,52,34,30.07,29.85,29.61,10,10,7,13,1,24,0.00,4,,177
2013-2-18,30,19,8,21,11,-6,74,64,52,29.73,29.56,29.47,10,9,4,16,2,30,0.00,6,Snow,322
2013-2-19,8,2,-4,-8,-14,-18,56,45,34,30.31,30.02,29.74,10,10,7,18,8,32,0.00,2,,337
2013-2-20,19,6,-7,-9,-14,-18,65,42,23,30.43,30.39,30.31,10,10,10,0,0,,0.00,0,,-1
2013-2-21,24,6,-13,18,-1,-22,80,62,43,30.46,30.33,30.12,10,10,5,10,0,16,0.00,4,Snow,56
2013-2-22,30,26,21,19,17,14,80,71,60,30.12,29.91,29.80,10,6,0,8,0,,0.03,8,Snow,70
2013-2-23,32,26,21,19,16,14,86,65,48,29.89,29.81,29.77,10,10,7,0,0,,0.00,7,Snow,-1
2013-2-24,33,18,3,18,12,-4,80,65,48,30.04,29.99,29.89,10,10,4,0,0,,0.00,1,,-1
2013-2-25,33,20,6,21,10,0,80,67,41,30.08,30.04,30.00,10,8,0,8,0,,0.00,2,,230
2013-2-26,37,19,1,19,11,-6,86,64,45,30.05,29.98,29.92,10,8,0,12,1,16,0.00,1,,57
2013-2-27,35,29,23,19,18,14,80,61,48,30.02,29.93,29.89,10,10,10,12,1,16,0.00,3,,35
2013-2-28,30,26,21,16,12,9,68,55,40,30.24,30.15,30.02,10,10,10,10,2,16,0.00,5,,43